sensor_id;sensor_type;location;lat;lon;timestamp;pressure;altitude;pressure_sealevel;temperature;humidity
43326;BME280;28920;59.862;30.636;2022-10-03T00:01:21;100651.34;;;1.69;100.00
43326;BME280;28920;59.862;30.636;2022-10-03T00:04:03;100651.97;;;1.75;100.00
43326;BME280;28920;59.862;30.636;2022-10-03T00:11:41;100650.59;;;2.09;100.00
43326;BME280;28920;59.862;30.636;2022-10-03T00:14:17;100655.62;;;2.16;100.00
43326;BME280;28920;59.862;30.636;2022-10-03T00:16:54;100656.12;;;2.26;100.00
43326;BME280;28920;59.862;30.636;2022-10-03T00:19:34;100649.75;;;2.31;100.00
43326;BME280;28920;59.862;30.636;2022-10-03T00:22:14;100654.00;;;2.34;100.00
43326;BME280;28920;59.862;30.636;2022-10-03T00:24:53;100651.19;;;2.39;100.00
43326;BME280;28920;59.862;30.636;2022-10-03T00:32:10;100643.56;;;2.53;100.00
43326;BME280;28920;59.862;30.636;2022-10-03T00:35:03;100646.19;;;2.53;100.00
43326;BME280;28920;59.862;30.636;2022-10-03T00:37:35;100644.75;;;2.46;100.00
43326;BME280;28920;59.862;30.636;2022-10-03T00:40:34;100642.78;;;2.51;100.00
43326;BME280;28920;59.862;30.636;2022-10-03T00:46:34;100622.50;;;2.32;100.00
43326;BME280;28920;59.862;30.636;2022-10-03T01:00:31;100636.19;;;2.61;100.00
43326;BME280;28920;59.862;30.636;2022-10-03T01:03:23;100630.53;;;2.71;100.00
43326;BME280;28920;59.862;30.636;2022-10-03T01:06:05;100631.03;;;2.79;100.00
43326;BME280;28920;59.862;30.636;2022-10-03T01:08:57;100632.53;;;2.85;100.00
43326;BME280;28920;59.862;30.636;2022-10-03T01:11:39;100619.34;;;2.85;100.00
43326;BME280;28920;59.862;30.636;2022-10-03T01:14:17;100612.53;;;3.00;100.00
43326;BME280;28920;59.862;30.636;2022-10-03T01:25:18;100609.09;;;3.38;100.00
43326;BME280;28920;59.862;30.636;2022-10-03T01:27:54;100611.16;;;3.50;100.00
43326;BME280;28920;59.862;30.636;2022-10-03T01:30:48;100606.97;;;3.64;100.00
43326;BME280;28920;59.862;30.636;2022-10-03T01:33:21;100611.97;;;3.70;100.00
43326;BME280;28920;59.862;30.636;2022-10-03T01:40:27;100615.81;;;3.99;100.00
43326;BME280;28920;59.862;30.636;2022-10-03T01:43:07;100625.81;;;4.12;100.00
43326;BME280;28920;59.862;30.636;2022-10-03T01:45:45;100608.88;;;4.16;100.00
43326;BME280;28920;59.862;30.636;2022-10-03T01:48:20;100613.84;;;4.22;100.00
43326;BME280;28920;59.862;30.636;2022-10-03T01:50:56;100607.53;;;4.25;100.00
43326;BME280;28920;59.862;30.636;2022-10-03T01:53:34;100602.72;;;4.33;100.00
43326;BME280;28920;59.862;30.636;2022-10-03T01:59:07;100599.16;;;4.34;100.00
43326;BME280;28920;59.862;30.636;2022-10-03T02:01:45;100610.25;;;4.41;100.00
43326;BME280;28920;59.862;30.636;2022-10-03T02:04:21;100603.13;;;4.43;100.00
43326;BME280;28920;59.862;30.636;2022-10-03T02:07:01;100613.22;;;4.52;100.00
43326;BME280;28920;59.862;30.636;2022-10-03T02:09:37;100614.59;;;4.59;100.00
43326;BME280;28920;59.862;30.636;2022-10-03T02:12:09;100610.09;;;4.62;100.00
43326;BME280;28920;59.862;30.636;2022-10-03T02:14:50;100619.34;;;4.70;100.00
43326;BME280;28920;59.862;30.636;2022-10-03T02:22:30;100614.16;;;4.85;100.00
43326;BME280;28920;59.862;30.636;2022-10-03T02:25:14;100607.41;;;4.79;100.00
43326;BME280;28920;59.862;30.636;2022-10-03T02:31:05;100618.28;;;4.91;100.00
43326;BME280;28920;59.862;30.636;2022-10-03T02:34:00;100616.75;;;4.86;100.00
43326;BME280;28920;59.862;30.636;2022-10-03T02:45:01;100618.28;;;4.91;100.00
43326;BME280;28920;59.862;30.636;2022-10-03T02:48:08;100609.44;;;4.92;100.00
43326;BME280;28920;59.862;30.636;2022-10-03T02:54:18;100606.69;;;4.93;100.00
43326;BME280;28920;59.862;30.636;2022-10-03T02:57:17;100606.69;;;4.93;100.00
43326;BME280;28920;59.862;30.636;2022-10-03T03:03:11;100606.00;;;4.90;100.00
43326;BME280;28920;59.862;30.636;2022-10-03T03:09:07;100600.09;;;4.84;100.00
43326;BME280;28920;59.862;30.636;2022-10-03T03:12:01;100598.22;;;4.86;100.00
43326;BME280;28920;59.862;30.636;2022-10-03T03:14:52;100595.53;;;4.88;100.00
43326;BME280;28920;59.862;30.636;2022-10-03T03:17:31;100596.28;;;4.90;100.00
43326;BME280;28920;59.862;30.636;2022-10-03T03:25:22;100588.28;;;4.92;100.00
43326;BME280;28920;59.862;30.636;2022-10-03T03:28:00;100596.97;;;4.94;100.00
43326;BME280;28920;59.862;30.636;2022-10-03T03:30:41;100583.00;;;4.92;100.00
43326;BME280;28920;59.862;30.636;2022-10-03T03:33:15;100595.28;;;4.93;100.00
43326;BME280;28920;59.862;30.636;2022-10-03T03:35:58;100587.94;;;4.98;100.00
43326;BME280;28920;59.862;30.636;2022-10-03T03:38:36;100582.06;;;4.93;100.00
43326;BME280;28920;59.862;30.636;2022-10-03T03:47:33;100574.53;;;5.01;100.00
43326;BME280;28920;59.862;30.636;2022-10-03T03:50:21;100573.44;;;5.05;100.00
43326;BME280;28920;59.862;30.636;2022-10-03T03:53:09;100562.87;;;5.05;100.00
43326;BME280;28920;59.862;30.636;2022-10-03T03:55:57;100564.41;;;5.09;100.00
43326;BME280;28920;59.862;30.636;2022-10-03T03:58:36;100565.25;;;5.10;100.00
43326;BME280;28920;59.862;30.636;2022-10-03T04:05:45;100554.44;;;5.14;100.00
43326;BME280;28920;59.862;30.636;2022-10-03T04:08:28;100548.19;;;5.15;100.00
43326;BME280;28920;59.862;30.636;2022-10-03T04:11:10;100549.84;;;5.18;100.00
43326;BME280;28920;59.862;30.636;2022-10-03T04:17:00;100533.53;;;5.26;100.00
43326;BME280;28920;59.862;30.636;2022-10-03T04:20:04;100526.28;;;5.29;100.00
43326;BME280;28920;59.862;30.636;2022-10-03T04:30:47;100505.34;;;5.41;100.00
43326;BME280;28920;59.862;30.636;2022-10-03T04:33:31;100489.47;;;5.41;100.00
43326;BME280;28920;59.862;30.636;2022-10-03T04:39:17;100493.31;;;5.51;100.00
43326;BME280;28920;59.862;30.636;2022-10-03T04:41:53;100496.81;;;5.52;100.00
43326;BME280;28920;59.862;30.636;2022-10-03T04:49:29;100490.12;;;5.61;100.00
43326;BME280;28920;59.862;30.636;2022-10-03T04:52:06;100489.09;;;5.63;100.00
43326;BME280;28920;59.862;30.636;2022-10-03T04:54:48;100490.63;;;5.67;100.00
43326;BME280;28920;59.862;30.636;2022-10-03T04:57:29;100487.78;;;5.70;100.00
43326;BME280;28920;59.862;30.636;2022-10-03T05:00:04;100492.16;;;5.71;100.00
43326;BME280;28920;59.862;30.636;2022-10-03T05:02:45;100477.97;;;5.73;100.00
43326;BME280;28920;59.862;30.636;2022-10-03T05:08:17;100481.19;;;5.78;100.00
43326;BME280;28920;59.862;30.636;2022-10-03T05:11:09;100478.34;;;5.81;100.00
43326;BME280;28920;59.862;30.636;2022-10-03T05:14:07;100475.53;;;5.84;100.00
43326;BME280;28920;59.862;30.636;2022-10-03T05:16:43;100469.94;;;5.74;100.00
43326;BME280;28920;59.862;30.636;2022-10-03T05:19:45;100463.06;;;5.86;100.00
43326;BME280;28920;59.862;30.636;2022-10-03T05:22:39;100456.75;;;5.89;100.00
43326;BME280;28920;59.862;30.636;2022-10-03T05:28:24;100465.62;;;5.88;100.00
43326;BME280;28920;59.862;30.636;2022-10-03T05:31:01;100479.91;;;5.85;100.00
43326;BME280;28920;59.862;30.636;2022-10-03T05:33:37;100468.16;;;5.89;100.00
43326;BME280;28920;59.862;30.636;2022-10-03T05:36:14;100449.81;;;5.86;100.00
43326;BME280;28920;59.862;30.636;2022-10-03T05:39:25;100459.12;;;5.93;100.00
43326;BME280;28920;59.862;30.636;2022-10-03T05:41:55;100449.91;;;5.84;100.00
43326;BME280;28920;59.862;30.636;2022-10-03T05:49:48;100454.37;;;5.98;100.00
43326;BME280;28920;59.862;30.636;2022-10-03T05:52:38;100439.63;;;5.94;100.00
43326;BME280;28920;59.862;30.636;2022-10-03T05:55:28;100433.59;;;5.92;100.00
43326;BME280;28920;59.862;30.636;2022-10-03T05:58:22;100436.22;;;5.92;100.00
43326;BME280;28920;59.862;30.636;2022-10-03T06:01:21;100441.53;;;5.92;100.00
43326;BME280;28920;59.862;30.636;2022-10-03T06:07:28;100427.34;;;5.93;100.00
43326;BME280;28920;59.862;30.636;2022-10-03T06:10:38;100437.81;;;5.95;100.00
43326;BME280;28920;59.862;30.636;2022-10-03T06:13:19;100434.34;;;5.94;100.00
43326;BME280;28920;59.862;30.636;2022-10-03T06:15:55;100435.28;;;5.93;100.00
43326;BME280;28920;59.862;30.636;2022-10-03T06:18:44;100429.87;;;5.95;100.00
43326;BME280;28920;59.862;30.636;2022-10-03T06:26:19;100428.41;;;6.05;100.00
43326;BME280;28920;59.862;30.636;2022-10-03T06:29:23;100422.66;;;6.13;100.00
43326;BME280;28920;59.862;30.636;2022-10-03T06:35:19;100413.37;;;6.20;100.00
43326;BME280;28920;59.862;30.636;2022-10-03T06:38:33;100418.50;;;6.23;100.00
43326;BME280;28920;59.862;30.636;2022-10-03T06:44:45;100409.41;;;6.28;100.00
43326;BME280;28920;59.862;30.636;2022-10-03T06:47:22;100417.44;;;6.26;100.00
43326;BME280;28920;59.862;30.636;2022-10-03T06:50:18;100414.50;;;6.31;100.00
43326;BME280;28920;59.862;30.636;2022-10-03T06:53:12;100417.72;;;6.36;100.00
43326;BME280;28920;59.862;30.636;2022-10-03T06:56:03;100416.78;;;6.37;100.00
43326;BME280;28920;59.862;30.636;2022-10-03T06:59:08;100422.44;;;6.45;100.00
43326;BME280;28920;59.862;30.636;2022-10-03T07:06:58;100421.88;;;6.40;100.00
43326;BME280;28920;59.862;30.636;2022-10-03T07:15:55;100414.13;;;6.37;100.00
43326;BME280;28920;59.862;30.636;2022-10-03T07:19:02;100420.19;;;6.39;100.00
43326;BME280;28920;59.862;30.636;2022-10-03T07:30:58;100370.97;;;6.20;100.00
43326;BME280;28920;59.862;30.636;2022-10-03T07:36:31;100388.88;;;6.31;100.00
43326;BME280;28920;59.862;30.636;2022-10-03T07:39:58;100399.63;;;6.43;100.00
43326;BME280;28920;59.862;30.636;2022-10-03T07:42:43;100391.03;;;6.39;100.00
43326;BME280;28920;59.862;30.636;2022-10-03T07:45:35;100378.81;;;6.51;100.00
43326;BME280;28920;59.862;30.636;2022-10-03T07:52:56;100391.41;;;6.47;100.00
43326;BME280;28920;59.862;30.636;2022-10-03T07:55:50;100384.97;;;6.51;100.00
43326;BME280;28920;59.862;30.636;2022-10-03T07:59:07;100390.28;;;6.51;100.00
43326;BME280;28920;59.862;30.636;2022-10-03T08:01:49;100387.72;;;6.50;100.00
43326;BME280;28920;59.862;30.636;2022-10-03T08:15:05;100363.78;;;6.51;100.00
43326;BME280;28920;59.862;30.636;2022-10-03T08:20:48;100368.75;;;6.56;100.00
43326;BME280;28920;59.862;30.636;2022-10-03T08:26:16;100346.72;;;6.56;100.00
43326;BME280;28920;59.862;30.636;2022-10-03T08:29:11;100342.34;;;6.54;100.00
43326;BME280;28920;59.862;30.636;2022-10-03T08:40:46;100335.16;;;6.57;100.00
43326;BME280;28920;59.862;30.636;2022-10-03T08:43:51;100331.09;;;6.51;100.00
43326;BME280;28920;59.862;30.636;2022-10-03T08:49:43;100323.22;;;6.49;100.00
43326;BME280;28920;59.862;30.636;2022-10-03T08:52:31;100315.19;;;6.51;100.00
43326;BME280;28920;59.862;30.636;2022-10-03T09:00:18;100298.84;;;6.44;100.00
43326;BME280;28920;59.862;30.636;2022-10-03T09:06:36;100290.84;;;6.59;100.00
43326;BME280;28920;59.862;30.636;2022-10-03T09:09:41;100279.56;;;6.55;100.00
43326;BME280;28920;59.862;30.636;2022-10-03T09:12:32;100280.66;;;6.52;100.00
43326;BME280;28920;59.862;30.636;2022-10-03T09:20:42;100267.94;;;6.58;100.00
43326;BME280;28920;59.862;30.636;2022-10-03T09:23:38;100262.62;;;6.58;100.00
43326;BME280;28920;59.862;30.636;2022-10-03T09:29:26;100249.47;;;6.56;100.00
43326;BME280;28920;59.862;30.636;2022-10-03T09:35:20;100230.00;;;6.57;100.00
43326;BME280;28920;59.862;30.636;2022-10-03T09:41:00;100217.13;;;6.51;100.00
43326;BME280;28920;59.862;30.636;2022-10-03T09:46:51;100226.25;;;6.47;100.00
43326;BME280;28920;59.862;30.636;2022-10-03T10:01:24;100219.56;;;6.54;100.00
43326;BME280;28920;59.862;30.636;2022-10-03T10:07:30;100201.31;;;6.49;100.00
43326;BME280;28920;59.862;30.636;2022-10-03T10:13:47;100197.72;;;6.50;100.00
43326;BME280;28920;59.862;30.636;2022-10-03T10:19:29;100187.53;;;6.44;100.00
43326;BME280;28920;59.862;30.636;2022-10-03T10:25:27;100179.63;;;6.30;100.00
43326;BME280;28920;59.862;30.636;2022-10-03T10:31:34;100167.59;;;6.38;100.00
43326;BME280;28920;59.862;30.636;2022-10-03T10:38:10;100168.44;;;6.39;100.00
43326;BME280;28920;59.862;30.636;2022-10-03T10:44:11;100152.66;;;6.37;100.00
43326;BME280;28920;59.862;30.636;2022-10-03T10:47:11;100150.44;;;6.44;100.00
43326;BME280;28920;59.862;30.636;2022-10-03T10:50:23;100134.94;;;6.38;100.00
43326;BME280;28920;59.862;30.636;2022-10-03T10:58:59;100113.94;;;6.35;100.00
43326;BME280;28920;59.862;30.636;2022-10-03T11:02:17;100116.59;;;6.35;100.00
43326;BME280;28920;59.862;30.636;2022-10-03T11:22:52;100074.09;;;6.23;100.00
43326;BME280;28920;59.862;30.636;2022-10-03T11:29:04;100066.78;;;6.27;100.00
43326;BME280;28920;59.862;30.636;2022-10-03T11:32:20;100052.59;;;6.28;100.00
43326;BME280;28920;59.862;30.636;2022-10-03T11:37:40;100042.28;;;6.23;100.00
43326;BME280;28920;59.862;30.636;2022-10-03T11:40:23;100057.13;;;6.26;100.00
43326;BME280;28920;59.862;30.636;2022-10-03T11:43:03;100051.72;;;6.28;100.00
43326;BME280;28920;59.862;30.636;2022-10-03T11:45:40;100036.78;;;6.26;100.00
43326;BME280;28920;59.862;30.636;2022-10-03T11:48:28;100020.88;;;6.26;100.00
43326;BME280;28920;59.862;30.636;2022-10-03T11:51:02;100026.41;;;6.23;100.00
43326;BME280;28920;59.862;30.636;2022-10-03T11:56:35;100023.44;;;6.28;100.00
43326;BME280;28920;59.862;30.636;2022-10-03T11:59:30;100022.16;;;6.34;100.00
43326;BME280;28920;59.862;30.636;2022-10-03T12:02:09;100026.91;;;6.29;100.00
43326;BME280;28920;59.862;30.636;2022-10-03T12:04:48;100025.22;;;6.28;100.00
43326;BME280;28920;59.862;30.636;2022-10-03T12:07:36;100023.53;;;6.26;100.00
43326;BME280;28920;59.862;30.636;2022-10-03T12:10:32;100017.59;;;6.23;100.00
43326;BME280;28920;59.862;30.636;2022-10-03T12:17:48;100010.91;;;6.17;100.00
43326;BME280;28920;59.862;30.636;2022-10-03T12:20:24;100018.94;;;6.16;100.00
43326;BME280;28920;59.862;30.636;2022-10-03T12:23:03;100014.53;;;6.16;100.00
43326;BME280;28920;59.862;30.636;2022-10-03T12:25:39;100004.88;;;6.15;100.00
43326;BME280;28920;59.862;30.636;2022-10-03T12:28:11;99995.88;;;6.18;100.00
43326;BME280;28920;59.862;30.636;2022-10-03T12:30:47;99999.03;;;6.10;100.00
43326;BME280;28920;59.862;30.636;2022-10-03T12:38:24;99990.34;;;6.08;100.00
43326;BME280;28920;59.862;30.636;2022-10-03T12:41:05;99983.91;;;6.12;100.00
43326;BME280;28920;59.862;30.636;2022-10-03T12:43:48;99988.97;;;6.15;100.00
43326;BME280;28920;59.862;30.636;2022-10-03T12:46:28;99975.84;;;6.13;100.00
43326;BME280;28920;59.862;30.636;2022-10-03T12:49:01;99992.59;;;6.14;100.00
43326;BME280;28920;59.862;30.636;2022-10-03T12:51:40;99985.47;;;6.15;100.00
43326;BME280;28920;59.862;30.636;2022-10-03T12:59:17;99971.59;;;6.11;100.00
43326;BME280;28920;59.862;30.636;2022-10-03T13:01:58;99961.94;;;6.10;100.00
43326;BME280;28920;59.862;30.636;2022-10-03T13:04:36;99967.25;;;6.10;100.00
43326;BME280;28920;59.862;30.636;2022-10-03T13:07:21;99972.44;;;6.11;100.00
43326;BME280;28920;59.862;30.636;2022-10-03T13:10:18;99960.81;;;6.14;100.00
43326;BME280;28920;59.862;30.636;2022-10-03T13:12:52;99954.13;;;6.08;100.00
43326;BME280;28920;59.862;30.636;2022-10-03T13:19:23;99962.87;;;5.83;100.00
43326;BME280;28920;59.862;30.636;2022-10-03T13:22:00;99954.59;;;6.01;100.00
43326;BME280;28920;59.862;30.636;2022-10-03T13:24:35;99951.56;;;6.07;100.00
43326;BME280;28920;59.862;30.636;2022-10-03T13:27:21;99957.41;;;6.12;100.00
43326;BME280;28920;59.862;30.636;2022-10-03T13:30:03;99928.78;;;6.04;100.00
43326;BME280;28920;59.862;30.636;2022-10-03T13:32:34;99938.25;;;6.08;100.00
43326;BME280;28920;59.862;30.636;2022-10-03T13:38:26;99941.41;;;6.13;100.00
43326;BME280;28920;59.862;30.636;2022-10-03T13:41:21;99922.44;;;6.07;100.00
43326;BME280;28920;59.862;30.636;2022-10-03T13:43:59;99935.69;;;6.07;100.00
43326;BME280;28920;59.862;30.636;2022-10-03T13:46:38;99918.31;;;6.03;100.00
43326;BME280;28920;59.862;30.636;2022-10-03T13:49:23;99911.50;;;5.98;100.00
43326;BME280;28920;59.862;30.636;2022-10-03T13:51:55;99909.81;;;5.97;100.00
43326;BME280;28920;59.862;30.636;2022-10-03T13:59:50;99897.31;;;5.99;100.00
43326;BME280;28920;59.862;30.636;2022-10-03T14:02:40;99913.03;;;6.03;100.00
43326;BME280;28920;59.862;30.636;2022-10-03T14:05:31;99900.63;;;6.03;100.00
43326;BME280;28920;59.862;30.636;2022-10-03T14:08:08;99901.13;;;5.95;100.00
43326;BME280;28920;59.862;30.636;2022-10-03T14:11:03;99894.50;;;6.03;100.00
43326;BME280;28920;59.862;30.636;2022-10-03T14:13:44;99898.69;;;5.92;100.00
43326;BME280;28920;59.862;30.636;2022-10-03T14:21:48;99898.69;;;5.92;100.00
43326;BME280;28920;59.862;30.636;2022-10-03T14:24:30;99878.87;;;5.85;100.00
43326;BME280;28920;59.862;30.636;2022-10-03T14:27:09;99883.97;;;5.88;100.00
43326;BME280;28920;59.862;30.636;2022-10-03T14:29:54;99874.88;;;5.92;100.00
43326;BME280;28920;59.862;30.636;2022-10-03T14:32:32;99865.31;;;5.90;100.00
43326;BME280;28920;59.862;30.636;2022-10-03T14:35:08;99860.88;;;5.90;100.00
43326;BME280;28920;59.862;30.636;2022-10-03T14:42:53;99868.50;;;5.95;100.00
43326;BME280;28920;59.862;30.636;2022-10-03T14:45:27;99871.44;;;5.90;100.00
43326;BME280;28920;59.862;30.636;2022-10-03T14:47:59;99826.66;;;5.74;100.00
43326;BME280;28920;59.862;30.636;2022-10-03T14:50:30;99859.81;;;5.93;100.00
43326;BME280;28920;59.862;30.636;2022-10-03T14:53:03;99837.25;;;5.87;100.00
43326;BME280;28920;59.862;30.636;2022-10-03T14:55:42;99854.28;;;5.96;100.00
43326;BME280;28920;59.862;30.636;2022-10-03T15:03:28;99854.09;;;5.99;100.00
43326;BME280;28920;59.862;30.636;2022-10-03T15:06:01;99856.34;;;5.92;100.00
43326;BME280;28920;59.862;30.636;2022-10-03T15:08:34;99854.41;;;5.94;100.00
43326;BME280;28920;59.862;30.636;2022-10-03T15:11:06;99856.22;;;5.94;100.00
43326;BME280;28920;59.862;30.636;2022-10-03T15:13:37;99845.62;;;5.94;100.00
43326;BME280;28920;59.862;30.636;2022-10-03T15:16:07;99846.47;;;5.94;100.00
43326;BME280;28920;59.862;30.636;2022-10-03T15:25:15;99852.50;;;5.96;100.00
43326;BME280;28920;59.862;30.636;2022-10-03T15:27:47;99853.47;;;5.95;100.00
43326;BME280;28920;59.862;30.636;2022-10-03T15:30:21;99863.84;;;5.98;100.00
43326;BME280;28920;59.862;30.636;2022-10-03T15:32:50;99848.81;;;5.99;100.00
43326;BME280;28920;59.862;30.636;2022-10-03T15:35:22;99863.66;;;6.02;100.00
43326;BME280;28920;59.862;30.636;2022-10-03T15:37:51;99858.75;;;5.95;100.00
43326;BME280;28920;59.862;30.636;2022-10-03T15:40:23;99854.94;;;5.99;100.00
43326;BME280;28920;59.862;30.636;2022-10-03T15:47:43;99841.81;;;5.98;100.00
43326;BME280;28920;59.862;30.636;2022-10-03T15:50:28;99833.97;;;5.96;100.00
43326;BME280;28920;59.862;30.636;2022-10-03T15:53:06;99806.22;;;5.89;100.00
43326;BME280;28920;59.862;30.636;2022-10-03T15:55:43;99805.38;;;5.89;100.00
43326;BME280;28920;59.862;30.636;2022-10-03T15:58:15;99820.63;;;5.98;100.00
43326;BME280;28920;59.862;30.636;2022-10-03T16:00:48;99813.00;;;5.93;100.00
43326;BME280;28920;59.862;30.636;2022-10-03T16:08:27;99808.44;;;5.95;100.00
43326;BME280;28920;59.862;30.636;2022-10-03T16:11:05;99817.03;;;5.99;100.00
43326;BME280;28920;59.862;30.636;2022-10-03T16:13:41;99797.84;;;5.95;100.00
43326;BME280;28920;59.862;30.636;2022-10-03T16:16:16;99800.50;;;5.95;100.00
43326;BME280;28920;59.862;30.636;2022-10-03T16:19:22;99787.59;;;6.04;100.00
43326;BME280;28920;59.862;30.636;2022-10-03T16:22:10;99773.06;;;5.96;100.00
43326;BME280;28920;59.862;30.636;2022-10-03T16:29:22;99717.34;;;5.48;100.00
43326;BME280;28920;59.862;30.636;2022-10-03T16:31:51;99764.72;;;6.03;100.00
43326;BME280;28920;59.862;30.636;2022-10-03T16:34:23;99754.75;;;5.93;100.00
43326;BME280;28920;59.862;30.636;2022-10-03T16:36:52;99757.50;;;5.92;100.00
43326;BME280;28920;59.862;30.636;2022-10-03T16:39:23;99749.56;;;5.92;100.00
43326;BME280;28920;59.862;30.636;2022-10-03T16:41:53;99731.12;;;5.90;100.00
43326;BME280;28920;59.862;30.636;2022-10-03T16:44:29;99736.97;;;5.95;100.00
43326;BME280;28920;59.862;30.636;2022-10-03T16:51:36;99736.97;;;5.95;100.00
43326;BME280;28920;59.862;30.636;2022-10-03T16:54:10;99725.50;;;5.95;100.00
43326;BME280;28920;59.862;30.636;2022-10-03T16:56:43;99717.47;;;5.96;100.00
43326;BME280;28920;59.862;30.636;2022-10-03T16:59:15;99729.75;;;5.97;100.00
43326;BME280;28920;59.862;30.636;2022-10-03T17:01:44;99712.28;;;6.08;100.00
43326;BME280;28920;59.862;30.636;2022-10-03T17:04:20;99705.81;;;5.99;100.00
43326;BME280;28920;59.862;30.636;2022-10-03T17:06:51;99689.31;;;5.95;100.00
43326;BME280;28920;59.862;30.636;2022-10-03T17:14:19;99691.09;;;5.95;100.00
43326;BME280;28920;59.862;30.636;2022-10-03T17:16:52;99699.66;;;5.98;100.00
43326;BME280;28920;59.862;30.636;2022-10-03T17:19:30;99696.28;;;5.96;100.00
43326;BME280;28920;59.862;30.636;2022-10-03T17:22:05;99689.72;;;6.02;100.00
43326;BME280;28920;59.862;30.636;2022-10-03T17:24:42;99687.28;;;5.99;100.00
43326;BME280;28920;59.862;30.636;2022-10-03T17:27:24;99680.00;;;6.03;100.00
43326;BME280;28920;59.862;30.636;2022-10-03T17:34:59;99669.41;;;6.03;100.00
43326;BME280;28920;59.862;30.636;2022-10-03T17:40:48;99675.31;;;6.06;100.00
43326;BME280;28920;59.862;30.636;2022-10-03T17:43:22;99657.00;;;6.03;100.00
43326;BME280;28920;59.862;30.636;2022-10-03T17:45:57;99653.19;;;5.94;100.00
43326;BME280;28920;59.862;30.636;2022-10-03T17:48:34;99657.72;;;6.05;100.00
43326;BME280;28920;59.862;30.636;2022-10-03T18:00:14;99649.56;;;6.08;100.00
43326;BME280;28920;59.862;30.636;2022-10-03T18:02:49;99639.81;;;6.09;100.00
43326;BME280;28920;59.862;30.636;2022-10-03T18:05:19;99643.41;;;6.08;100.00
43326;BME280;28920;59.862;30.636;2022-10-03T18:07:50;99639.94;;;6.07;100.00
43326;BME280;28920;59.862;30.636;2022-10-03T18:10:23;99633.78;;;6.07;100.00
43326;BME280;28920;59.862;30.636;2022-10-03T18:12:54;99627.53;;;6.08;100.00
43326;BME280;28920;59.862;30.636;2022-10-03T18:19:41;99617.66;;;6.10;100.00
43326;BME280;28920;59.862;30.636;2022-10-03T18:22:17;99612.59;;;6.07;100.00
43326;BME280;28920;59.862;30.636;2022-10-03T18:24:51;99618.50;;;6.10;100.00
43326;BME280;28920;59.862;30.636;2022-10-03T18:27:41;99610.34;;;6.13;100.00
43326;BME280;28920;59.862;30.636;2022-10-03T18:30:19;99612.59;;;6.07;100.00
43326;BME280;28920;59.862;30.636;2022-10-03T18:32:48;99610.91;;;6.06;100.00
43326;BME280;28920;59.862;30.636;2022-10-03T18:35:20;99615.75;;;6.12;100.00
43326;BME280;28920;59.862;30.636;2022-10-03T18:42:57;99606.72;;;6.15;100.00
43326;BME280;28920;59.862;30.636;2022-10-03T18:45:30;99607.25;;;6.20;100.00
43326;BME280;28920;59.862;30.636;2022-10-03T18:48:06;99613.59;;;6.17;100.00
43326;BME280;28920;59.862;30.636;2022-10-03T18:50:48;99606.50;;;6.18;100.00
43326;BME280;28920;59.862;30.636;2022-10-03T18:53:21;99607.69;;;6.13;100.00
43326;BME280;28920;59.862;30.636;2022-10-03T18:55:55;99611.06;;;6.16;100.00
43326;BME280;28920;59.862;30.636;2022-10-03T19:01:06;99608.41;;;6.16;100.00
43326;BME280;28920;59.862;30.636;2022-10-03T19:03:41;99597.00;;;6.15;100.00
43326;BME280;28920;59.862;30.636;2022-10-03T19:06:18;99601.09;;;6.19;100.00
43326;BME280;28920;59.862;30.636;2022-10-03T19:08:50;99597.47;;;6.20;100.00
43326;BME280;28920;59.862;30.636;2022-10-03T19:11:20;99592.78;;;6.24;100.00
43326;BME280;28920;59.862;30.636;2022-10-03T19:13:56;99607.84;;;6.23;100.00
43326;BME280;28920;59.862;30.636;2022-10-03T19:24:40;99603.53;;;6.22;100.00
43326;BME280;28920;59.862;30.636;2022-10-03T19:27:13;99604.50;;;6.21;100.00
43326;BME280;28920;59.862;30.636;2022-10-03T19:29:45;99598.34;;;6.21;100.00
43326;BME280;28920;59.862;30.636;2022-10-03T19:32:17;99598.09;;;6.24;100.00
43326;BME280;28920;59.862;30.636;2022-10-03T19:34:49;99595.56;;;6.22;100.00
43326;BME280;28920;59.862;30.636;2022-10-03T19:37:28;99593.41;;;6.28;100.00
43326;BME280;28920;59.862;30.636;2022-10-03T19:40:00;99578.72;;;6.23;100.00
43326;BME280;28920;59.862;30.636;2022-10-03T19:47:30;99577.53;;;6.28;100.00
43326;BME280;28920;59.862;30.636;2022-10-03T19:50:05;99572.97;;;6.41;100.00
43326;BME280;28920;59.862;30.636;2022-10-03T19:52:39;99577.53;;;6.28;100.00
43326;BME280;28920;59.862;30.636;2022-10-03T19:55:12;99564.03;;;6.31;100.00
43326;BME280;28920;59.862;30.636;2022-10-03T19:57:43;99563.94;;;6.32;100.00
43326;BME280;28920;59.862;30.636;2022-10-03T20:00:21;99563.81;;;6.34;100.00
43326;BME280;28920;59.862;30.636;2022-10-03T20:06:26;99565.50;;;6.35;100.00
43326;BME280;28920;59.862;30.636;2022-10-03T20:08:55;99561.91;;;6.47;100.00
43326;BME280;28920;59.862;30.636;2022-10-03T20:11:35;99544.19;;;6.36;100.00
43326;BME280;28920;59.862;30.636;2022-10-03T20:14:12;99545.28;;;6.34;100.00
43326;BME280;28920;59.862;30.636;2022-10-03T20:16:43;99542.63;;;6.34;100.00
43326;BME280;28920;59.862;30.636;2022-10-03T20:19:14;99539.13;;;6.33;100.00
43326;BME280;28920;59.862;30.636;2022-10-03T20:21:49;99547.69;;;6.37;100.00
43326;BME280;28920;59.862;30.636;2022-10-03T20:29:24;99559.50;;;6.44;100.00
43326;BME280;28920;59.862;30.636;2022-10-03T20:31:58;99541.06;;;6.43;100.00
43326;BME280;28920;59.862;30.636;2022-10-03T20:34:27;99536.50;;;6.45;100.00
43326;BME280;28920;59.862;30.636;2022-10-03T20:37:03;99542.66;;;6.45;100.00
43326;BME280;28920;59.862;30.636;2022-10-03T20:39:36;99535.06;;;6.52;100.00